Time;durP1;ratioP1;P1;durP2;ratioP2;P2;SDS_P1;SDS_P2;PMS_P1;PMS_P2;Temp;Humidity;BMP_temperature;BMP_pressure;BME280_temperature;BME280_humidity;BME280_pressure;Samples;Min_cycle;Max_cycle;Signal;HPM_P1;HPM_P2
2020/12/18 00:06:11;;;;;;;10.87;5.47;;;;;;;;;;5202743;22;20079;-83
2020/12/18 00:08:39;;;;;;;12.03;5.97;;;;;;;;;;5382181;22;20045;-83
2020/12/18 00:11:05;;;;;;;12.47;5.50;;;;;;;;;;5058797;28;20048;-84
2020/12/18 00:31:42;;;;;;;14.33;5.60;;;;;;;;;;5335292;22;20043;-82
2020/12/18 00:34:08;;;;;;;12.37;4.57;;;;;;;;;;5393495;22;20125;-84
2020/12/18 00:36:34;;;;;;;15.57;6.27;;;;;;;;;;5446615;22;20061;-82
2020/12/18 00:39:00;;;;;;;13.93;5.90;;;;;;;;;;5251249;22;20060;-83
2020/12/18 00:41:26;;;;;;;17.67;5.97;;;;;;;;;;5080507;28;20024;-84
2020/12/18 00:43:52;;;;;;;14.53;6.37;;;;;;;;;;5468278;22;21280;-82
2020/12/18 00:46:18;;;;;;;15.83;7.13;;;;;;;;;;5060180;28;20024;-83
2020/12/18 00:48:44;;;;;;;18.37;6.17;;;;;;;;;;5077278;28;20025;-84
2020/12/18 00:51:15;;;;;;;18.23;5.90;;;;;;;;;;5060426;28;20080;-81
2020/12/18 00:53:41;;;;;;;12.77;6.03;;;;;;;;;;5059017;28;20021;-83
2020/12/18 00:56:10;;;;;;;14.60;5.80;;;;;;;;;;5060182;28;20056;-84
2020/12/18 00:58:37;;;;;;;11.90;4.33;;;;;;;;;;5064548;28;20047;-83
2020/12/18 01:01:04;;;;;;;12.57;5.50;;;;;;;;;;5082044;28;20085;-84
2020/12/18 01:06:07;;;;;;;14.67;6.00;;;;;;;;;;5217318;22;20144;-84
2020/12/18 01:08:33;;;;;;;15.33;6.00;;;;;;;;;;5084698;28;20040;-84
2020/12/18 01:11:01;;;;;;;14.50;6.47;;;;;;;;;;5101808;28;20020;-85
2020/12/18 01:18:40;;;;;;;15.93;6.10;;;;;;;;;;5091199;22;20084;-85
2020/12/18 01:21:06;;;;;;;14.30;6.57;;;;;;;;;;5063990;28;20025;-85
2020/12/18 01:38:19;;;;;;;16.83;8.20;;;;;;;;;;5370200;23;19977;-84
2020/12/18 01:57:14;;;;;;;14.43;7.80;;;;;;;;;;5010867;23;20059;-85
2020/12/18 01:59:40;;;;;;;17.43;7.57;;;;;;;;;;4963321;29;20031;-84
2020/12/18 02:02:07;;;;;;;19.53;7.50;;;;;;;;;;4961910;29;20047;-85
2020/12/18 02:04:33;;;;;;;22.37;7.87;;;;;;;;;;4961871;29;20039;-84
2020/12/18 02:07:01;;;;;;;20.87;10.37;;;;;;;;;;4961542;29;20095;-83
2020/12/18 02:12:03;;;;;;;19.93;7.37;;;;;;;;;;5408543;23;20082;-85
2020/12/18 02:14:29;;;;;;;18.73;8.83;;;;;;;;;;5523514;23;20063;-84
2020/12/18 02:35:06;;;;;;;25.50;11.60;;;;;;;;;;6046785;23;20029;-81
2020/12/18 02:37:32;;;;;;;27.23;11.73;;;;;;;;;;4980170;28;20140;-84
2020/12/18 02:45:09;;;;;;;27.17;10.37;;;;;;;;;;5935488;23;20018;-83
2020/12/18 02:47:36;;;;;;;24.70;10.60;;;;;;;;;;5387498;23;20046;-84
2020/12/18 03:05:37;;;;;;;29.57;12.63;;;;;;;;;;5619561;23;20048;-84
2020/12/18 03:15:50;;;;;;;26.87;9.47;;;;;;;;;;5868562;23;20051;-84
2020/12/18 03:20:52;;;;;;;30.70;11.93;;;;;;;;;;5114027;23;20152;-85
2020/12/18 03:39:47;;;;;;;17.10;10.17;;;;;;;;;;5976592;23;20062;-82
2020/12/18 04:05:36;;;;;;;18.67;9.03;;;;;;;;;;5695086;23;20075;-85
2020/12/18 04:08:02;;;;;;;29.63;12.43;;;;;;;;;;4960505;29;20035;-84
2020/12/18 04:10:28;;;;;;;26.10;10.93;;;;;;;;;;4960603;29;20040;-84
2020/12/18 04:59:08;;;;;;;27.83;10.53;;;;;;;;;;5443796;23;20062;-83
2020/12/18 05:01:34;;;;;;;32.20;9.77;;;;;;;;;;4959541;29;20015;-82
2020/12/18 05:04:01;;;;;;;22.03;8.63;;;;;;;;;;4962697;29;20040;-83
2020/12/18 05:06:27;;;;;;;21.90;11.13;;;;;;;;;;4960515;29;20052;-82
2020/12/18 05:08:54;;;;;;;27.20;10.83;;;;;;;;;;4963433;29;20080;-83
2020/12/18 05:11:27;;;;;;;25.13;11.57;;;;;;;;;;4961208;29;20019;-83
2020/12/18 05:13:55;;;;;;;27.60;10.57;;;;;;;;;;4962059;29;20012;-83
2020/12/18 05:16:21;;;;;;;24.50;8.60;;;;;;;;;;5255591;23;20041;-82
2020/12/18 05:18:48;;;;;;;33.20;9.17;;;;;;;;;;5789114;23;20737;-82
2020/12/18 05:21:14;;;;;;;23.07;10.43;;;;;;;;;;4958779;29;20119;-82
2020/12/18 05:23:42;;;;;;;27.50;11.53;;;;;;;;;;5118770;23;20124;-82
2020/12/18 05:26:08;;;;;;;25.67;12.83;;;;;;;;;;4941567;29;20039;-81
2020/12/18 05:28:38;;;;;;;29.97;11.10;;;;;;;;;;5095232;23;20082;-82
2020/12/18 05:36:30;;;;;;;24.00;10.37;;;;;;;;;;5411714;23;20788;-80
2020/12/18 05:41:55;;;;;;;24.33;9.37;;;;;;;;;;5199195;23;20122;-83
2020/12/18 05:44:25;;;;;;;29.07;10.97;;;;;;;;;;5749371;23;20018;-84
2020/12/18 05:49:28;;;;;;;29.77;11.90;;;;;;;;;;5318329;23;20071;-85
2020/12/18 05:51:55;;;;;;;27.03;11.73;;;;;;;;;;5479404;23;20428;-82
2020/12/18 05:56:57;;;;;;;28.60;12.40;;;;;;;;;;5559695;23;20014;-83
2020/12/18 05:59:23;;;;;;;29.47;11.53;;;;;;;;;;4958776;28;20118;-83
2020/12/18 06:01:50;;;;;;;29.50;11.90;;;;;;;;;;4989605;23;20070;-83
2020/12/18 06:04:17;;;;;;;27.23;9.67;;;;;;;;;;4977837;28;20079;-84
2020/12/18 06:06:46;;;;;;;24.37;9.47;;;;;;;;;;4977531;28;20019;-84
2020/12/18 06:09:12;;;;;;;25.00;10.87;;;;;;;;;;4975786;28;20039;-83
2020/12/18 06:11:39;;;;;;;29.33;10.07;;;;;;;;;;4976762;28;20023;-84
2020/12/18 06:14:06;;;;;;;29.73;9.80;;;;;;;;;;5135965;23;20044;-83
2020/12/18 06:22:12;;;;;;;26.23;9.47;;;;;;;;;;5310226;23;20083;-82
2020/12/18 06:24:41;;;;;;;27.57;10.13;;;;;;;;;;5535809;23;20163;-82
2020/12/18 06:27:12;;;;;;;21.77;8.80;;;;;;;;;;4923898;29;20044;-82
2020/12/18 06:29:38;;;;;;;20.97;8.27;;;;;;;;;;5035985;23;20048;-84
2020/12/18 06:34:35;;;;;;;28.43;12.20;;;;;;;;;;5222925;23;20027;-83
2020/12/18 06:37:01;;;;;;;26.23;10.73;;;;;;;;;;4943986;29;20056;-82
2020/12/18 06:39:28;;;;;;;28.17;13.27;;;;;;;;;;4960203;29;20047;-83
2020/12/18 06:42:09;;;;;;;27.30;12.10;;;;;;;;;;4959850;29;20023;-82
2020/12/18 06:44:36;;;;;;;24.27;9.73;;;;;;;;;;4960959;29;20046;-85
2020/12/18 06:47:25;;;;;;;21.47;11.53;;;;;;;;;;4960558;29;20071;-83
2020/12/18 06:50:03;;;;;;;32.67;14.03;;;;;;;;;;4959685;29;20020;-85
2020/12/18 06:52:38;;;;;;;33.03;18.43;;;;;;;;;;5113222;23;20050;-82
2020/12/18 06:55:05;;;;;;;33.20;18.20;;;;;;;;;;5085489;23;20067;-83
2020/12/18 06:57:31;;;;;;;38.73;19.77;;;;;;;;;;4961663;29;20015;-82
2020/12/18 07:00:30;;;;;;;43.47;23.43;;;;;;;;;;5358547;23;20635;-82
2020/12/18 07:02:57;;;;;;;40.00;24.07;;;;;;;;;;4924231;29;20031;-83
2020/12/18 07:05:32;;;;;;;36.97;23.73;;;;;;;;;;4961029;29;20015;-81
2020/12/18 07:07:59;;;;;;;39.87;27.07;;;;;;;;;;4959889;29;20032;-82
2020/12/18 07:10:30;;;;;;;47.93;27.93;;;;;;;;;;4960900;29;20099;-82
2020/12/18 07:15:44;;;;;;;47.60;30.33;;;;;;;;;;4960068;28;20067;-84
2020/12/18 07:18:10;;;;;;;;;;;;;;;;;;4959467;28;20056;-82
2020/12/18 07:20:36;;;;;;;37.40;24.83;;;;;;;;;;4942217;29;19950;-81
2020/12/18 07:23:02;;;;;;;56.60;31.27;;;;;;;;;;4953580;29;20031;-82
2020/12/18 07:25:28;;;;;;;52.90;37.17;;;;;;;;;;4950497;29;20028;-82
2020/12/18 07:27:54;;;;;;;64.30;34.83;;;;;;;;;;4949812;29;20036;-80
2020/12/18 07:30:21;;;;;;;51.10;36.70;;;;;;;;;;4954384;29;20023;-83
2020/12/18 07:32:50;;;;;;;59.40;38.20;;;;;;;;;;4956990;28;20035;-82
2020/12/18 07:35:16;;;;;;;60.30;40.13;;;;;;;;;;4954273;29;20031;-81
2020/12/18 07:37:42;;;;;;;59.30;44.33;;;;;;;;;;4953156;28;20027;-82
2020/12/18 07:40:08;;;;;;;66.10;40.73;;;;;;;;;;4958456;28;20019;-82
2020/12/18 07:42:34;;;;;;;62.13;42.00;;;;;;;;;;5014815;23;20064;-85
2020/12/18 07:45:07;;;;;;;66.87;37.20;;;;;;;;;;4941544;29;20024;-81
2020/12/18 07:47:37;;;;;;;60.57;39.97;;;;;;;;;;4954986;29;20036;-83
2020/12/18 07:50:04;;;;;;;56.97;40.37;;;;;;;;;;4952022;29;20035;-80
2020/12/18 07:52:30;;;;;;;56.80;39.07;;;;;;;;;;4950365;29;20028;-81
2020/12/18 07:54:57;;;;;;;51.23;34.17;;;;;;;;;;4937395;29;20089;-82
2020/12/18 07:57:23;;;;;;;54.03;37.03;;;;;;;;;;4951483;29;20051;-81
2020/12/18 07:59:49;;;;;;;53.87;36.63;;;;;;;;;;4952949;29;20040;-81
2020/12/18 08:02:25;;;;;;;54.27;30.27;;;;;;;;;;4949544;29;20035;-82
2020/12/18 08:04:57;;;;;;;56.60;35.60;;;;;;;;;;4936645;29;20031;-85
2020/12/18 08:07:23;;;;;;;46.50;34.70;;;;;;;;;;4937801;29;20024;-81
2020/12/18 08:09:59;;;;;;;47.37;37.07;;;;;;;;;;4952725;29;20009;-83
2020/12/18 08:12:26;;;;;;;51.13;33.77;;;;;;;;;;4936665;29;20499;-84
2020/12/18 08:15:05;;;;;;;47.57;34.80;;;;;;;;;;4953715;29;20029;-82
2020/12/18 08:17:33;;;;;;;55.47;34.00;;;;;;;;;;4954266;29;20032;-82
2020/12/18 08:19:59;;;;;;;49.13;32.20;;;;;;;;;;4956687;29;20032;-82
2020/12/18 08:22:27;;;;;;;50.87;30.57;;;;;;;;;;5331578;23;20087;-83
2020/12/18 08:24:55;;;;;;;44.80;29.47;;;;;;;;;;4957421;29;20036;-81
2020/12/18 08:29:57;;;;;;;50.20;30.20;;;;;;;;;;5464944;23;20071;-83
2020/12/18 08:32:27;;;;;;;42.57;29.40;;;;;;;;;;4960074;29;20079;-81
2020/12/18 08:35:01;;;;;;;40.00;26.90;;;;;;;;;;4959674;29;20032;-82
2020/12/18 08:37:27;;;;;;;41.60;28.13;;;;;;;;;;4957747;29;20114;-83
2020/12/18 08:39:53;;;;;;;42.53;24.73;;;;;;;;;;4957169;29;20035;-84
2020/12/18 08:42:19;;;;;;;43.47;27.57;;;;;;;;;;4957296;29;20033;-82
2020/12/18 08:44:46;;;;;;;41.17;27.43;;;;;;;;;;4955350;29;20020;-81
2020/12/18 08:47:17;;;;;;;41.03;26.17;;;;;;;;;;4957479;29;20027;-82
2020/12/18 08:49:44;;;;;;;42.37;23.37;;;;;;;;;;4958335;29;20039;-83
2020/12/18 08:57:16;;;;;;;39.00;22.13;;;;;;;;;;5101296;23;20075;-81
2020/12/18 09:00:02;;;;;;;39.70;26.00;;;;;;;;;;5774099;23;20188;-79
2020/12/18 09:02:32;;;;;;;33.33;17.47;;;;;;;;;;4943577;29;20058;-83
2020/12/18 09:05:07;;;;;;;30.57;15.80;;;;;;;;;;4956413;29;20039;-82
2020/12/18 09:07:40;;;;;;;31.87;20.33;;;;;;;;;;4956968;29;20536;-82
2020/12/18 09:12:43;;;;;;;26.90;16.00;;;;;;;;;;5555876;23;19942;-81
2020/12/18 09:15:23;;;;;;;36.67;16.37;;;;;;;;;;4958160;29;20060;-82
2020/12/18 09:18:09;;;;;;;28.63;15.13;;;;;;;;;;4961373;29;20036;-83
2020/12/18 09:20:39;;;;;;;24.27;10.90;;;;;;;;;;4961891;29;20032;-83
2020/12/18 09:23:12;;;;;;;25.30;12.50;;;;;;;;;;4962684;29;20031;-83
2020/12/18 09:25:49;;;;;;;27.43;14.60;;;;;;;;;;4958797;29;20015;-82
2020/12/18 09:28:18;;;;;;;25.97;14.50;;;;;;;;;;4958920;29;20055;-82
2020/12/18 09:30:49;;;;;;;18.93;11.13;;;;;;;;;;4960115;29;20032;-80
2020/12/18 09:33:18;;;;;;;30.63;13.47;;;;;;;;;;4959220;29;20046;-79
2020/12/18 09:35:44;;;;;;;24.30;14.37;;;;;;;;;;4961025;29;20028;-82
2020/12/18 09:38:11;;;;;;;29.43;13.53;;;;;;;;;;4956237;29;20036;-82
2020/12/18 09:40:37;;;;;;;24.90;14.10;;;;;;;;;;4958878;29;20031;-82
2020/12/18 09:43:03;;;;;;;19.63;12.90;;;;;;;;;;4956787;29;20038;-82
2020/12/18 09:45:29;;;;;;;19.57;13.27;;;;;;;;;;4958959;29;20056;-82
2020/12/18 09:47:55;;;;;;;20.90;12.43;;;;;;;;;;4957988;29;20051;-81
2020/12/18 09:50:21;;;;;;;19.00;9.10;;;;;;;;;;4957807;29;20028;-84
2020/12/18 09:52:48;;;;;;;21.27;12.97;;;;;;;;;;4957272;29;20083;-82
2020/12/18 09:55:14;;;;;;;19.13;11.80;;;;;;;;;;4958435;29;20063;-81
2020/12/18 09:57:40;;;;;;;28.00;12.10;;;;;;;;;;4956962;29;20035;-81
2020/12/18 10:00:07;;;;;;;20.00;10.83;;;;;;;;;;4956528;29;20020;-80
2020/12/18 10:02:34;;;;;;;21.33;10.93;;;;;;;;;;4955661;29;20032;-83
2020/12/18 10:05:00;;;;;;;22.50;10.93;;;;;;;;;;5197492;23;20052;-84
2020/12/18 10:07:26;;;;;;;23.27;11.40;;;;;;;;;;4939300;29;20035;-81
2020/12/18 10:09:52;;;;;;;26.03;11.80;;;;;;;;;;4954665;29;20083;-82
2020/12/18 10:12:18;;;;;;;16.77;10.73;;;;;;;;;;4957275;29;20020;-82
2020/12/18 10:14:44;;;;;;;24.00;11.03;;;;;;;;;;4941276;29;20035;-81
2020/12/18 10:17:11;;;;;;;21.93;11.23;;;;;;;;;;4956785;29;20032;-82
2020/12/18 10:19:37;;;;;;;19.23;8.97;;;;;;;;;;4955501;29;20032;-82
2020/12/18 10:22:03;;;;;;;23.33;9.80;;;;;;;;;;4950741;29;20054;-82
2020/12/18 10:24:29;;;;;;;14.43;7.23;;;;;;;;;;4950394;29;20030;-81
2020/12/18 10:26:56;;;;;;;23.20;10.33;;;;;;;;;;4937112;29;20020;-82
2020/12/18 10:29:22;;;;;;;21.50;9.13;;;;;;;;;;4938090;29;20016;-82
2020/12/18 10:31:52;;;;;;;20.63;8.57;;;;;;;;;;4957307;29;20084;-82
2020/12/18 10:34:18;;;;;;;16.10;8.70;;;;;;;;;;5394513;23;21091;-81
2020/12/18 10:36:44;;;;;;;22.70;8.77;;;;;;;;;;4943848;29;20032;-84
2020/12/18 10:39:10;;;;;;;18.73;7.53;;;;;;;;;;5495364;23;20040;-82
2020/12/18 10:41:38;;;;;;;19.03;8.03;;;;;;;;;;4956588;29;20057;-82
2020/12/18 10:44:04;;;;;;;21.70;7.03;;;;;;;;;;4940184;29;20048;-83
2020/12/18 10:46:31;;;;;;;15.70;6.60;;;;;;;;;;4942169;29;20008;-83
2020/12/18 10:48:57;;;;;;;16.60;6.43;;;;;;;;;;4975266;23;20083;-82
2020/12/18 10:51:23;;;;;;;15.20;6.33;;;;;;;;;;4960389;29;20024;-83
2020/12/18 10:53:49;;;;;;;17.37;6.10;;;;;;;;;;4957950;29;20032;-82
2020/12/18 10:56:15;;;;;;;13.03;5.70;;;;;;;;;;4954073;29;20031;-82
2020/12/18 10:58:41;;;;;;;17.40;5.40;;;;;;;;;;4954707;29;20039;-84
2020/12/18 11:01:08;;;;;;;13.90;5.33;;;;;;;;;;4955817;29;20036;-82
2020/12/18 11:03:34;;;;;;;15.00;5.30;;;;;;;;;;4954577;29;20031;-81
2020/12/18 11:06:03;;;;;;;16.80;5.57;;;;;;;;;;4953560;29;20031;-83
2020/12/18 11:08:30;;;;;;;16.47;5.00;;;;;;;;;;4955781;29;20083;-82
2020/12/18 11:10:56;;;;;;;16.50;5.03;;;;;;;;;;4954668;29;20156;-83
2020/12/18 11:13:22;;;;;;;10.27;4.40;;;;;;;;;;4953125;29;20036;-81
2020/12/18 11:15:48;;;;;;;14.33;5.23;;;;;;;;;;4954166;29;20046;-82
2020/12/18 11:18:15;;;;;;;11.30;3.90;;;;;;;;;;4953913;29;20043;-81
2020/12/18 11:20:41;;;;;;;13.00;4.40;;;;;;;;;;4953285;29;20088;-81
2020/12/18 11:23:07;;;;;;;12.27;4.00;;;;;;;;;;4957222;29;20011;-82
2020/12/18 11:25:33;;;;;;;16.57;4.37;;;;;;;;;;4944094;29;20099;-83
2020/12/18 11:27:59;;;;;;;16.53;4.17;;;;;;;;;;4956840;29;20075;-81
2020/12/18 11:30:25;;;;;;;9.57;3.83;;;;;;;;;;4959381;29;20392;-80
2020/12/18 11:32:51;;;;;;;11.10;2.40;;;;;;;;;;5172941;23;20060;-82
2020/12/18 11:35:17;;;;;;;12.47;4.30;;;;;;;;;;4935378;29;20533;-82
2020/12/18 11:37:43;;;;;;;16.07;4.33;;;;;;;;;;4951016;29;20047;-82
2020/12/18 11:40:09;;;;;;;11.87;3.70;;;;;;;;;;4937627;29;20027;-84
2020/12/18 11:42:35;;;;;;;13.60;4.27;;;;;;;;;;4935924;29;20038;-83
2020/12/18 11:45:01;;;;;;;13.50;3.77;;;;;;;;;;4935447;29;20043;-81
2020/12/18 11:47:28;;;;;;;14.90;3.43;;;;;;;;;;4952437;29;20032;-81
2020/12/18 11:49:54;;;;;;;13.70;3.70;;;;;;;;;;4938102;29;20024;-84
2020/12/18 11:52:20;;;;;;;10.43;3.13;;;;;;;;;;4951804;29;20028;-82
2020/12/18 11:54:46;;;;;;;18.43;3.90;;;;;;;;;;4932513;29;20042;-82
2020/12/18 11:57:12;;;;;;;13.60;3.00;;;;;;;;;;4953092;29;20104;-82
2020/12/18 11:59:38;;;;;;;14.07;2.70;;;;;;;;;;4938166;29;20044;-83
2020/12/18 12:02:05;;;;;;;12.67;2.87;;;;;;;;;;4955113;29;20036;-82
2020/12/18 12:04:30;;;;;;;14.83;3.00;;;;;;;;;;4954047;29;20027;-82
2020/12/18 12:06:57;;;;;;;11.03;2.87;;;;;;;;;;4950135;29;20120;-82
2020/12/18 12:09:23;;;;;;;12.30;2.60;;;;;;;;;;4952776;29;20040;-82
2020/12/18 12:11:50;;;;;;;9.80;2.95;;;;;;;;;;4952242;29;20062;-82
2020/12/18 12:14:16;;;;;;;10.17;2.73;;;;;;;;;;4956585;29;20036;-81
2020/12/18 12:16:42;;;;;;;12.73;2.53;;;;;;;;;;5101062;23;20068;-81
2020/12/18 12:19:09;;;;;;;8.77;2.10;;;;;;;;;;4959081;29;20031;-82
2020/12/18 12:21:35;;;;;;;13.43;2.40;;;;;;;;;;4958637;29;20088;-81
2020/12/18 12:24:02;;;;;;;11.67;2.27;;;;;;;;;;4990027;23;20040;-82
2020/12/18 12:26:29;;;;;;;8.47;2.30;;;;;;;;;;4955652;29;20038;-82
2020/12/18 12:28:55;;;;;;;11.03;1.90;;;;;;;;;;4953555;29;20032;-81
2020/12/18 12:31:21;;;;;;;8.33;2.63;;;;;;;;;;4940201;29;20035;-81
2020/12/18 12:33:47;;;;;;;14.57;2.00;;;;;;;;;;4954424;29;20066;-81
2020/12/18 12:36:20;;;;;;;8.80;2.37;;;;;;;;;;4957819;29;20032;-82
2020/12/18 12:38:46;;;;;;;12.27;2.70;;;;;;;;;;5015887;23;20079;-81
2020/12/18 12:46:25;;;;;;;8.03;2.00;;;;;;;;;;5100721;23;20040;-81
2020/12/18 12:48:52;;;;;;;6.68;2.13;;;;;;;;;;4955391;29;20028;-80
2020/12/18 12:51:18;;;;;;;8.00;2.05;;;;;;;;;;4955427;29;20449;-80
2020/12/18 12:53:44;;;;;;;6.35;2.15;;;;;;;;;;4958748;29;20035;-80
2020/12/18 12:56:14;;;;;;;8.73;2.07;;;;;;;;;;4956476;29;20036;-80
2020/12/18 12:58:40;;;;;;;11.57;1.80;;;;;;;;;;4958022;29;20059;-81
2020/12/18 13:01:06;;;;;;;6.50;1.70;;;;;;;;;;4961080;29;20098;-82
2020/12/18 13:03:32;;;;;;;10.95;1.50;;;;;;;;;;4962041;29;20020;-82
2020/12/18 13:05:58;;;;;;;6.88;1.50;;;;;;;;;;4961150;29;20008;-78
2020/12/18 13:08:24;;;;;;;11.07;2.08;;;;;;;;;;4941609;29;20071;-80
2020/12/18 13:10:50;;;;;;;8.60;1.90;;;;;;;;;;4958987;29;20027;-79
2020/12/18 13:13:16;;;;;;;5.82;1.88;;;;;;;;;;4953556;29;20024;-81
2020/12/18 13:15:42;;;;;;;8.55;1.70;;;;;;;;;;4956549;29;20075;-82
2020/12/18 13:18:10;;;;;;;8.35;1.60;;;;;;;;;;5085888;23;20044;-81
2020/12/18 13:20:36;;;;;;;10.90;1.60;;;;;;;;;;4960529;29;20032;-81
2020/12/18 13:23:02;;;;;;;8.68;2.63;;;;;;;;;;4962991;29;20020;-82
2020/12/18 13:25:28;;;;;;;9.30;1.73;;;;;;;;;;4962764;29;20012;-81
2020/12/18 13:27:54;;;;;;;6.28;1.60;;;;;;;;;;4963153;29;20012;-82
2020/12/18 13:30:21;;;;;;;10.85;1.75;;;;;;;;;;4963835;29;20121;-81
2020/12/18 13:32:47;;;;;;;11.70;2.17;;;;;;;;;;4978225;23;20078;-83
2020/12/18 13:35:13;;;;;;;10.57;3.42;;;;;;;;;;5229597;23;20059;-82
2020/12/18 13:37:39;;;;;;;8.17;1.77;;;;;;;;;;5137302;23;20046;-81
2020/12/18 13:40:06;;;;;;;6.72;2.45;;;;;;;;;;5083601;23;20060;-82
2020/12/18 13:42:36;;;;;;;7.70;1.33;;;;;;;;;;4958831;29;20012;-81
2020/12/18 13:45:04;;;;;;;6.03;1.58;;;;;;;;;;4990095;23;20079;-81
2020/12/18 13:47:30;;;;;;;7.72;1.85;;;;;;;;;;4960308;29;20051;-81
2020/12/18 13:49:56;;;;;;;5.55;1.10;;;;;;;;;;4954580;29;20122;-81
2020/12/18 13:52:22;;;;;;;8.90;1.85;;;;;;;;;;4956228;29;20080;-81
2020/12/18 13:54:48;;;;;;;5.88;1.40;;;;;;;;;;4957356;29;20055;-84
2020/12/18 13:57:14;;;;;;;6.13;1.70;;;;;;;;;;4943727;29;20474;-81
2020/12/18 13:59:41;;;;;;;3.08;1.25;;;;;;;;;;4960216;29;20139;-83
2020/12/18 14:02:07;;;;;;;6.20;1.33;;;;;;;;;;4956057;29;20032;-81
2020/12/18 14:04:33;;;;;;;5.78;1.27;;;;;;;;;;4941917;29;20031;-81
2020/12/18 14:07:00;;;;;;;6.35;1.50;;;;;;;;;;4958763;29;20051;-81
2020/12/18 14:09:27;;;;;;;7.10;1.75;;;;;;;;;;4955271;29;20032;-81
2020/12/18 14:11:53;;;;;;;6.43;1.30;;;;;;;;;;4951732;29;20027;-81
2020/12/18 14:14:20;;;;;;;5.65;1.50;;;;;;;;;;4956640;29;20046;-82
2020/12/18 14:16:46;;;;;;;7.80;2.50;;;;;;;;;;4955836;29;20036;-81
2020/12/18 14:19:12;;;;;;;4.55;1.42;;;;;;;;;;4958194;29;20157;-82
2020/12/18 14:21:39;;;;;;;5.05;1.77;;;;;;;;;;4957991;29;20067;-81
2020/12/18 14:24:06;;;;;;;9.18;2.33;;;;;;;;;;5061324;23;21081;-80
2020/12/18 14:26:32;;;;;;;5.82;1.67;;;;;;;;;;4960973;29;20024;-82
2020/12/18 14:28:58;;;;;;;6.53;2.00;;;;;;;;;;4959114;29;20042;-82
2020/12/18 14:31:24;;;;;;;4.97;1.95;;;;;;;;;;4995581;23;20111;-82
2020/12/18 14:33:50;;;;;;;13.68;2.47;;;;;;;;;;4950461;29;20028;-81
2020/12/18 14:36:16;;;;;;;5.80;2.03;;;;;;;;;;4949201;29;20126;-82
2020/12/18 14:38:42;;;;;;;7.10;2.30;;;;;;;;;;4954701;29;20042;-80
2020/12/18 14:41:09;;;;;;;5.68;2.28;;;;;;;;;;4957543;29;20034;-81
2020/12/18 14:43:35;;;;;;;7.15;2.38;;;;;;;;;;4960671;29;20032;-81
2020/12/18 14:46:01;;;;;;;9.90;2.50;;;;;;;;;;4952444;29;20474;-81
2020/12/18 14:48:27;;;;;;;7.20;2.75;;;;;;;;;;4949047;29;20127;-81
2020/12/18 14:50:53;;;;;;;7.25;2.40;;;;;;;;;;4947403;29;20059;-79
2020/12/18 14:53:19;;;;;;;7.15;2.55;;;;;;;;;;4947803;29;20454;-81
2020/12/18 14:55:45;;;;;;;8.23;2.63;;;;;;;;;;4951418;29;20019;-82
2020/12/18 14:58:11;;;;;;;9.77;2.88;;;;;;;;;;4948132;29;20478;-81
2020/12/18 15:00:38;;;;;;;6.82;2.13;;;;;;;;;;4956228;29;20034;-81
2020/12/18 15:03:05;;;;;;;12.38;2.17;;;;;;;;;;4954793;29;20028;-81
2020/12/18 15:05:32;;;;;;;6.97;2.40;;;;;;;;;;4950197;29;20035;-80
2020/12/18 15:07:58;;;;;;;12.90;2.72;;;;;;;;;;4951789;29;20382;-81
2020/12/18 15:10:24;;;;;;;7.35;2.65;;;;;;;;;;4952922;29;20087;-81
2020/12/18 15:12:50;;;;;;;10.13;2.28;;;;;;;;;;4952601;29;20028;-80
2020/12/18 15:15:17;;;;;;;5.97;2.50;;;;;;;;;;4948982;29;20028;-81
2020/12/18 15:17:43;;;;;;;9.15;2.42;;;;;;;;;;4948333;29;20524;-80
2020/12/18 15:20:09;;;;;;;5.15;2.33;;;;;;;;;;4949844;29;20036;-80
2020/12/18 15:22:37;;;;;;;4.10;1.80;;;;;;;;;;4949648;29;20039;-81
2020/12/18 15:25:04;;;;;;;5.72;2.00;;;;;;;;;;4948805;29;20063;-81
2020/12/18 15:27:30;;;;;;;6.60;2.10;;;;;;;;;;4952540;29;20032;-81
2020/12/18 15:29:56;;;;;;;6.35;1.80;;;;;;;;;;4958412;29;20032;-82
2020/12/18 15:32:22;;;;;;;4.63;1.77;;;;;;;;;;4959025;29;20058;-82
2020/12/18 15:34:48;;;;;;;4.25;1.65;;;;;;;;;;4959763;29;20018;-83
2020/12/18 15:37:15;;;;;;;4.85;1.70;;;;;;;;;;4959358;29;20067;-82
2020/12/18 15:39:41;;;;;;;4.25;1.58;;;;;;;;;;4959835;29;20031;-82
2020/12/18 15:42:07;;;;;;;4.47;1.65;;;;;;;;;;4955787;29;20044;-81
2020/12/18 15:44:33;;;;;;;3.70;1.55;;;;;;;;;;4952371;29;20066;-81
2020/12/18 15:47:00;;;;;;;5.13;1.60;;;;;;;;;;4954568;29;20059;-80
2020/12/18 15:49:26;;;;;;;4.57;1.05;;;;;;;;;;4959441;29;20012;-81
2020/12/18 15:51:55;;;;;;;5.93;1.77;;;;;;;;;;4957119;29;20024;-81
2020/12/18 15:54:21;;;;;;;3.30;1.10;;;;;;;;;;4960378;29;20020;-80
2020/12/18 15:56:48;;;;;;;2.35;1.08;;;;;;;;;;4955537;29;20063;-80
2020/12/18 15:59:14;;;;;;;3.55;1.10;;;;;;;;;;4949470;29;20091;-81
2020/12/18 16:01:40;;;;;;;3.33;1.00;;;;;;;;;;4948952;29;20039;-80
2020/12/18 16:04:06;;;;;;;3.58;1.45;;;;;;;;;;4950914;29;20028;-81
2020/12/18 16:06:33;;;;;;;5.07;1.35;;;;;;;;;;4951895;29;20032;-78
2020/12/18 16:08:59;;;;;;;4.22;1.33;;;;;;;;;;4951509;29;20051;-80
2020/12/18 16:11:25;;;;;;;2.22;1.08;;;;;;;;;;4952880;29;20407;-81
2020/12/18 16:13:51;;;;;;;4.45;1.10;;;;;;;;;;4956783;29;20058;-81
2020/12/18 16:16:17;;;;;;;5.20;1.48;;;;;;;;;;4957492;29;20092;-81
2020/12/18 16:18:47;;;;;;;5.38;1.48;;;;;;;;;;4956943;29;20071;-81
2020/12/18 16:21:13;;;;;;;8.15;1.60;;;;;;;;;;4956565;29;20054;-81
2020/12/18 16:23:39;;;;;;;6.80;1.50;;;;;;;;;;4948920;29;20378;-81
2020/12/18 16:26:06;;;;;;;4.13;1.70;;;;;;;;;;4950471;29;20032;-82
2020/12/18 16:28:35;;;;;;;6.72;1.83;;;;;;;;;;4963121;29;20023;-83
2020/12/18 16:31:02;;;;;;;7.95;2.25;;;;;;;;;;4962733;29;20035;-82
2020/12/18 16:33:28;;;;;;;5.82;2.53;;;;;;;;;;4960493;29;20019;-81
2020/12/18 16:35:54;;;;;;;4.00;1.67;;;;;;;;;;4958028;29;20055;-81
2020/12/18 16:38:20;;;;;;;6.00;1.75;;;;;;;;;;4960933;29;20043;-81
2020/12/18 16:40:50;;;;;;;6.65;1.60;;;;;;;;;;4964497;29;20062;-83
2020/12/18 16:43:17;;;;;;;5.70;1.80;;;;;;;;;;4964378;29;20087;-81
2020/12/18 16:45:43;;;;;;;7.25;1.67;;;;;;;;;;4962573;29;20051;-81
2020/12/18 16:48:09;;;;;;;3.83;1.85;;;;;;;;;;4963098;29;20031;-82
2020/12/18 16:50:35;;;;;;;8.27;2.70;;;;;;;;;;4964077;29;20016;-82
2020/12/18 16:53:01;;;;;;;6.60;2.17;;;;;;;;;;4963494;29;20015;-83
2020/12/18 16:55:27;;;;;;;7.20;2.03;;;;;;;;;;4959604;29;20064;-82
2020/12/18 16:57:53;;;;;;;4.20;2.03;;;;;;;;;;4958585;29;20039;-81
2020/12/18 17:00:19;;;;;;;3.75;1.67;;;;;;;;;;4959732;29;20035;-82
2020/12/18 17:02:46;;;;;;;5.90;1.75;;;;;;;;;;4955146;29;20043;-81
2020/12/18 17:05:12;;;;;;;4.15;1.73;;;;;;;;;;4951640;29;20028;-81
2020/12/18 17:07:38;;;;;;;4.53;1.60;;;;;;;;;;4954174;29;20060;-81
2020/12/18 17:10:04;;;;;;;4.53;2.03;;;;;;;;;;4953279;29;20171;-81
2020/12/18 17:12:30;;;;;;;4.65;1.75;;;;;;;;;;4955607;29;20027;-83
2020/12/18 17:14:56;;;;;;;5.50;1.67;;;;;;;;;;4960829;29;20042;-82
2020/12/18 17:17:23;;;;;;;5.65;2.30;;;;;;;;;;4961709;29;20133;-83
2020/12/18 17:19:53;;;;;;;5.43;1.55;;;;;;;;;;4960348;29;20493;-81
2020/12/18 17:22:21;;;;;;;3.45;1.13;;;;;;;;;;4954779;29;20056;-81
2020/12/18 17:24:47;;;;;;;4.90;1.83;;;;;;;;;;4950455;29;20028;-82
2020/12/18 17:27:22;;;;;;;5.88;1.55;;;;;;;;;;4953048;29;20478;-81
2020/12/18 17:29:48;;;;;;;;;;;;;;;;;;4950503;29;20023;-81
2020/12/18 17:32:14;;;;;;;4.90;1.92;;;;;;;;;;4953326;29;19974;-81
2020/12/18 17:34:40;;;;;;;4.20;1.75;;;;;;;;;;4950415;29;20071;-81
2020/12/18 17:37:06;;;;;;;5.18;1.92;;;;;;;;;;4951203;29;20027;-81
2020/12/18 17:39:32;;;;;;;5.50;1.73;;;;;;;;;;4956232;29;20056;-81
2020/12/18 17:41:59;;;;;;;7.75;2.28;;;;;;;;;;4960550;29;20027;-82
2020/12/18 17:44:25;;;;;;;6.20;1.70;;;;;;;;;;4956781;29;20020;-81
2020/12/18 17:46:52;;;;;;;8.10;2.65;;;;;;;;;;4960997;29;20024;-82
2020/12/18 17:49:18;;;;;;;5.88;2.10;;;;;;;;;;4957518;29;20012;-82
2020/12/18 17:51:44;;;;;;;5.20;1.67;;;;;;;;;;4957052;29;20032;-83
2020/12/18 17:54:10;;;;;;;6.80;1.80;;;;;;;;;;4958515;29;20038;-81
2020/12/18 17:56:36;;;;;;;4.85;1.95;;;;;;;;;;4959192;29;20035;-81
2020/12/18 17:59:03;;;;;;;9.15;3.97;;;;;;;;;;4960827;29;20027;-81
2020/12/18 18:01:32;;;;;;;6.50;2.22;;;;;;;;;;4962138;29;20031;-81
2020/12/18 18:03:58;;;;;;;5.07;2.40;;;;;;;;;;4961063;29;20012;-82
2020/12/18 18:06:24;;;;;;;5.50;2.30;;;;;;;;;;4961672;29;20023;-81
2020/12/18 18:08:50;;;;;;;7.28;2.63;;;;;;;;;;4960770;29;20035;-82
2020/12/18 18:11:21;;;;;;;6.73;2.30;;;;;;;;;;4954832;29;20034;-81
2020/12/18 18:13:47;;;;;;;4.47;1.80;;;;;;;;;;4952547;29;20099;-81
2020/12/18 18:16:15;;;;;;;6.80;3.72;;;;;;;;;;4936380;29;20142;-82
2020/12/18 18:18:41;;;;;;;9.70;2.35;;;;;;;;;;4952766;29;20031;-82
2020/12/18 18:21:07;;;;;;;10.05;2.53;;;;;;;;;;4950905;29;20032;-81
2020/12/18 18:23:33;;;;;;;6.65;3.10;;;;;;;;;;4954669;29;20023;-81
2020/12/18 18:26:00;;;;;;;5.40;2.75;;;;;;;;;;4959689;29;20039;-81
2020/12/18 18:28:26;;;;;;;4.55;2.38;;;;;;;;;;4958917;29;20120;-81
2020/12/18 18:30:52;;;;;;;7.05;2.22;;;;;;;;;;4960982;29;20044;-81